createdAt,value
2023-01-03T00:00:19.000Z,83.86
2023-01-03T00:01:19.000Z,83.88
2023-01-03T00:02:19.000Z,83.67
2023-01-03T00:03:20.000Z,83.56
2023-01-03T00:04:20.000Z,83.51
2023-01-03T00:05:20.000Z,83.61
2023-01-03T00:06:26.000Z,83.63
2023-01-03T00:07:32.000Z,83.74
2023-01-03T00:08:20.000Z,83.69
2023-01-03T00:09:22.000Z,83.75
2023-01-03T00:10:20.000Z,83.84
2023-01-03T00:11:37.000Z,83.93
2023-01-03T00:12:23.000Z,83.66
2023-01-03T00:13:20.000Z,83.55
2023-01-03T00:14:24.000Z,83.65
2023-01-03T00:15:20.000Z,83.76
2023-01-03T00:16:20.000Z,83.79
2023-01-03T00:17:20.000Z,84.04
2023-01-03T00:18:20.000Z,84.11
2023-01-03T00:19:21.000Z,84.18
2023-01-03T00:20:20.000Z,84.12
2023-01-03T00:21:20.000Z,84.46
2023-01-03T00:22:20.000Z,84.16
2023-01-03T00:23:20.000Z,84.21
2023-01-03T00:24:20.000Z,84.25
2023-01-03T00:25:20.000Z,84.24
2023-01-03T00:26:20.000Z,84.21
2023-01-03T00:27:20.000Z,84.00
2023-01-03T00:28:20.000Z,84.06
2023-01-03T00:29:20.000Z,83.89
2023-01-03T00:30:20.000Z,83.85
2023-01-03T00:31:20.000Z,83.96
2023-01-03T00:32:20.000Z,83.92
2023-01-03T00:33:20.000Z,83.97
2023-01-03T00:34:20.000Z,83.87
2023-01-03T00:35:20.000Z,83.94
2023-01-03T00:36:20.000Z,83.94
2023-01-03T00:37:20.000Z,84.01
2023-01-03T00:38:20.000Z,84.06
2023-01-03T00:39:20.000Z,84.17
2023-01-03T00:40:20.000Z,84.61
2023-01-03T00:41:20.000Z,84.61
2023-01-03T00:42:20.000Z,84.53
2023-01-03T00:43:25.000Z,84.60
2023-01-03T00:44:20.000Z,84.46
2023-01-03T00:45:20.000Z,84.35
2023-01-03T00:46:20.000Z,84.28
2023-01-03T00:47:20.000Z,84.14
2023-01-03T00:48:20.000Z,84.07
2023-01-03T00:49:20.000Z,84.03
2023-01-03T00:50:20.000Z,84.26
2023-01-03T00:51:23.000Z,84.29
2023-01-03T00:52:20.000Z,84.26
2023-01-03T00:53:20.000Z,84.09
2023-01-03T00:54:20.000Z,84.10
2023-01-03T00:55:20.000Z,84.26
2023-01-03T00:56:22.000Z,84.05
2023-01-03T00:57:20.000Z,84.28
2023-01-03T00:58:20.000Z,84.25
2023-01-03T00:59:21.000Z,84.19
2023-01-03T01:00:20.000Z,84.04
2023-01-03T01:01:24.000Z,84.08
2023-01-03T01:02:20.000Z,84.05
2023-01-03T01:03:20.000Z,84.06
2023-01-03T01:04:26.000Z,84.06
2023-01-03T01:05:20.000Z,84.04
2023-01-03T01:06:23.000Z,84.09
2023-01-03T01:07:20.000Z,84.10
2023-01-03T01:08:20.000Z,84.00
2023-01-03T01:09:30.000Z,83.98
2023-01-03T01:10:20.000Z,84.19
2023-01-03T01:11:20.000Z,84.21
2023-01-03T01:12:20.000Z,84.62
2023-01-03T01:13:20.000Z,84.68
2023-01-03T01:14:22.000Z,84.43
2023-01-03T01:15:20.000Z,84.64
2023-01-03T01:16:24.000Z,84.62
2023-01-03T01:17:20.000Z,84.61
2023-01-03T01:18:20.000Z,84.38
2023-01-03T01:19:31.000Z,84.66
2023-01-03T01:20:20.000Z,85.05
2023-01-03T01:21:24.000Z,84.77
2023-01-03T01:22:20.000Z,84.89
2023-01-03T01:23:20.000Z,84.99
2023-01-03T01:24:20.000Z,84.76
2023-01-03T01:25:20.000Z,85.04
2023-01-03T01:26:22.000Z,85.31
2023-01-03T01:27:21.000Z,85.17
2023-01-03T01:28:20.000Z,85.53
2023-01-03T01:29:20.000Z,85.33
2023-01-03T01:30:20.000Z,85.09
2023-01-03T01:31:24.000Z,85.17
2023-01-03T01:32:20.000Z,85.31
2023-01-03T01:33:20.000Z,85.13
2023-01-03T01:34:20.000Z,85.09
2023-01-03T01:35:20.000Z,85.23
2023-01-03T01:36:35.000Z,85.06
2023-01-03T01:37:19.000Z,85.12
2023-01-03T01:38:20.000Z,85.12
2023-01-03T01:39:22.000Z,84.81
2023-01-03T01:40:20.000Z,84.86
2023-01-03T01:41:36.000Z,84.74
2023-01-03T01:42:25.000Z,84.70
2023-01-03T01:43:25.000Z,84.79
2023-01-03T01:44:35.000Z,84.75
2023-01-03T01:45:20.000Z,84.80
2023-01-03T01:46:27.000Z,84.77
2023-01-03T01:47:40.000Z,84.72
2023-01-03T01:48:20.000Z,84.76
2023-01-03T01:49:23.000Z,84.74
2023-01-03T01:50:32.000Z,84.91
2023-01-03T01:51:22.000Z,84.79
2023-01-03T01:52:20.000Z,84.79
2023-01-03T01:53:30.000Z,84.89
2023-01-03T01:54:20.000Z,84.85
2023-01-03T01:55:24.000Z,85.05
2023-01-03T01:56:23.000Z,84.90
2023-01-03T01:57:22.000Z,84.97
2023-01-03T01:58:22.000Z,84.91
2023-01-03T01:59:20.000Z,84.83
2023-01-03T02:00:20.000Z,84.79
2023-01-03T02:01:22.000Z,84.60
2023-01-03T02:02:22.000Z,84.59
2023-01-03T02:03:20.000Z,84.64
2023-01-03T02:04:23.000Z,84.79
2023-01-03T02:05:21.000Z,84.70
2023-01-03T02:06:21.000Z,84.56
2023-01-03T02:07:21.000Z,84.57
2023-01-03T02:08:20.000Z,84.82
2023-01-03T02:09:19.000Z,85.01
2023-01-03T02:10:30.000Z,84.73
2023-01-03T02:11:30.000Z,85.21
2023-01-03T02:12:47.000Z,84.98
2023-01-03T02:13:30.000Z,85.26
2023-01-03T02:14:42.000Z,85.36
2023-01-03T02:15:35.000Z,85.33
2023-01-03T02:16:30.000Z,85.16
2023-01-03T02:17:30.000Z,85.13
2023-01-03T02:18:43.000Z,84.88
2023-01-03T02:19:30.000Z,85.03
2023-01-03T02:20:32.000Z,84.97
2023-01-03T02:21:46.000Z,84.87
2023-01-03T02:22:37.000Z,84.67
2023-01-03T02:23:30.000Z,84.64
2023-01-03T02:24:43.000Z,84.65
2023-01-03T02:25:30.000Z,85.04
2023-01-03T02:26:30.000Z,84.75
2023-01-03T02:27:30.000Z,84.74
2023-01-03T02:28:30.000Z,84.98
2023-01-03T02:29:30.000Z,84.78
2023-01-03T02:30:30.000Z,84.89
2023-01-03T02:31:46.000Z,85.00
2023-01-03T02:32:32.000Z,85.01
2023-01-03T02:33:40.000Z,84.90
2023-01-03T02:34:37.000Z,84.84
2023-01-03T02:35:42.000Z,84.93
2023-01-03T02:36:39.000Z,85.10
2023-01-03T02:37:29.000Z,85.10
2023-01-03T02:38:35.000Z,85.11
2023-01-03T02:39:41.000Z,85.17
2023-01-03T02:40:28.000Z,85.47
2023-01-03T02:41:39.000Z,85.45
2023-01-03T02:42:33.000Z,85.79
2023-01-03T02:43:26.000Z,85.78
2023-01-03T02:44:29.000Z,85.64
2023-01-03T02:45:36.000Z,85.52
2023-01-03T02:46:31.000Z,85.42
2023-01-03T02:47:23.000Z,85.53
2023-01-03T02:48:33.000Z,85.34
2023-01-03T02:49:30.000Z,85.29
2023-01-03T02:50:24.000Z,85.28
2023-01-03T02:51:30.000Z,85.37
2023-01-03T02:52:25.000Z,85.46
2023-01-03T02:53:27.000Z,85.54
2023-01-03T02:54:26.000Z,85.31
2023-01-03T02:55:24.000Z,85.45
2023-01-03T02:56:28.000Z,85.51
2023-01-03T02:57:27.000Z,85.41
2023-01-03T02:58:23.000Z,85.56
2023-01-03T02:59:28.000Z,85.60
2023-01-03T03:00:23.000Z,85.61
2023-01-03T03:01:19.000Z,85.78
2023-01-03T03:02:22.000Z,85.65
2023-01-03T03:03:24.000Z,85.57
2023-01-03T03:04:20.000Z,85.63
2023-01-03T03:05:26.000Z,85.64
2023-01-03T03:06:37.000Z,85.70
2023-01-03T03:07:30.000Z,85.70
2023-01-03T03:08:19.000Z,85.75
2023-01-03T03:09:19.000Z,85.85
2023-01-03T03:10:25.000Z,85.74
2023-01-03T03:11:28.000Z,85.31
2023-01-03T03:12:27.000Z,85.71
2023-01-03T03:13:32.000Z,85.69
2023-01-03T03:14:31.000Z,85.60
2023-01-03T03:15:30.000Z,85.43
2023-01-03T03:16:41.000Z,85.57
2023-01-03T03:17:26.000Z,85.52
2023-01-03T03:18:29.000Z,85.51
2023-01-03T03:19:34.000Z,85.47
2023-01-03T03:20:24.000Z,85.43
2023-01-03T03:21:32.000Z,85.40
2023-01-03T03:22:34.000Z,85.22
2023-01-03T03:23:28.000Z,85.13
2023-01-03T03:24:28.000Z,85.29
2023-01-03T03:25:34.000Z,85.18
2023-01-03T03:26:28.000Z,85.27
2023-01-03T03:27:27.000Z,85.09
2023-01-03T03:28:28.000Z,85.26
2023-01-03T03:29:19.000Z,85.67
2023-01-03T03:30:22.000Z,85.70
2023-01-03T03:31:43.000Z,85.70
2023-01-03T03:32:22.000Z,85.82
2023-01-03T03:33:22.000Z,85.69
2023-01-03T03:34:29.000Z,85.60
2023-01-03T03:35:22.000Z,85.45
2023-01-03T03:36:33.000Z,85.47
2023-01-03T03:37:22.000Z,85.46
2023-01-03T03:38:28.000Z,85.51
2023-01-03T03:39:26.000Z,85.45
2023-01-03T03:40:26.000Z,85.89
2023-01-03T03:41:39.000Z,86.40
2023-01-03T03:42:38.000Z,86.62
2023-01-03T03:43:30.000Z,86.48
2023-01-03T03:44:34.000Z,86.32
2023-01-03T03:45:33.000Z,86.22
2023-01-03T03:46:30.000Z,86.23
2023-01-03T03:47:29.000Z,85.72
2023-01-03T03:48:29.000Z,85.62
2023-01-03T03:49:38.000Z,85.69
2023-01-03T03:50:32.000Z,85.91
2023-01-03T03:51:21.000Z,86.00
2023-01-03T03:52:24.000Z,85.89
2023-01-03T03:53:23.000Z,86.05
2023-01-03T03:54:21.000Z,85.83
2023-01-03T03:55:28.000Z,85.74
2023-01-03T03:56:24.000Z,85.94
2023-01-03T03:57:25.000Z,85.72
2023-01-03T03:58:27.000Z,85.89
2023-01-03T03:59:21.000Z,85.77
2023-01-03T04:00:26.000Z,85.85
2023-01-03T04:01:21.000Z,85.64
2023-01-03T04:02:21.000Z,85.80
2023-01-03T04:03:21.000Z,85.84
2023-01-03T04:04:25.000Z,85.75
2023-01-03T04:05:22.000Z,85.63
2023-01-03T04:06:27.000Z,85.67
2023-01-03T04:07:19.000Z,85.65
2023-01-03T04:08:19.000Z,85.85
2023-01-03T04:09:19.000Z,85.84
2023-01-03T04:10:20.000Z,85.89
2023-01-03T04:11:19.000Z,85.52
2023-01-03T04:12:19.000Z,85.45
2023-01-03T04:13:19.000Z,85.70
2023-01-03T04:14:19.000Z,85.46
2023-01-03T04:15:19.000Z,85.90
2023-01-03T04:16:19.000Z,85.79
2023-01-03T04:17:19.000Z,85.85
2023-01-03T04:18:19.000Z,85.57
2023-01-03T04:19:19.000Z,86.19
2023-01-03T04:20:19.000Z,86.18
2023-01-03T04:21:19.000Z,86.01
2023-01-03T04:22:19.000Z,86.27
2023-01-03T04:23:19.000Z,86.37
2023-01-03T04:24:20.000Z,86.13
2023-01-03T04:25:19.000Z,86.12
2023-01-03T04:26:19.000Z,86.57
2023-01-03T04:27:19.000Z,86.30
2023-01-03T04:28:19.000Z,86.05
2023-01-03T04:29:19.000Z,86.06
2023-01-03T04:30:19.000Z,86.03
2023-01-03T04:31:19.000Z,86.29
2023-01-03T04:32:19.000Z,86.26
2023-01-03T04:33:19.000Z,86.26
2023-01-03T04:34:19.000Z,85.96
2023-01-03T04:35:19.000Z,85.57
2023-01-03T04:36:19.000Z,85.81
2023-01-03T04:37:19.000Z,85.90
2023-01-03T04:38:19.000Z,85.64
2023-01-03T04:39:20.000Z,85.27
2023-01-03T04:40:19.000Z,85.22
2023-01-03T04:41:19.000Z,85.46
2023-01-03T04:42:25.000Z,85.41
2023-01-03T04:43:25.000Z,86.16
2023-01-03T04:44:19.000Z,86.02
2023-01-03T04:45:19.000Z,85.85
2023-01-03T04:46:20.000Z,86.34
2023-01-03T04:47:19.000Z,86.15
2023-01-03T04:48:20.000Z,87.09
2023-01-03T04:49:19.000Z,87.66
2023-01-03T04:50:19.000Z,87.06
2023-01-03T04:51:19.000Z,86.75
2023-01-03T04:52:19.000Z,87.01
2023-01-03T04:53:20.000Z,87.38
2023-01-03T04:54:19.000Z,87.42
2023-01-03T04:55:19.000Z,87.42
2023-01-03T04:56:29.000Z,87.88
2023-01-03T04:57:19.000Z,87.60
2023-01-03T04:58:19.000Z,87.70
2023-01-03T04:59:19.000Z,87.55
2023-01-03T05:00:20.000Z,87.27
2023-01-03T05:01:20.000Z,87.30
2023-01-03T05:02:19.000Z,87.45
2023-01-03T05:03:19.000Z,87.41
2023-01-03T05:04:20.000Z,87.28
2023-01-03T05:05:19.000Z,87.12
2023-01-03T05:06:19.000Z,86.76
2023-01-03T05:07:19.000Z,86.66
2023-01-03T05:08:19.000Z,86.53
2023-01-03T05:09:19.000Z,86.40
2023-01-03T05:10:19.000Z,86.52
2023-01-03T05:11:19.000Z,86.45
2023-01-03T05:12:19.000Z,86.25
2023-01-03T05:13:19.000Z,86.50
2023-01-03T05:14:19.000Z,86.38
2023-01-03T05:15:18.000Z,86.23
2023-01-03T05:16:19.000Z,86.05
2023-01-03T05:17:19.000Z,86.24
2023-01-03T05:18:19.000Z,86.03
2023-01-03T05:19:19.000Z,86.02
2023-01-03T05:20:24.000Z,86.09
2023-01-03T05:21:24.000Z,86.21
2023-01-03T05:22:24.000Z,86.14
2023-01-03T05:23:24.000Z,86.34
2023-01-03T05:24:24.000Z,86.45
2023-01-03T05:25:24.000Z,86.40
2023-01-03T05:26:19.000Z,86.54
2023-01-03T05:27:19.000Z,86.65
2023-01-03T05:28:20.000Z,86.48
2023-01-03T05:29:20.000Z,86.30
2023-01-03T05:30:19.000Z,86.14
2023-01-03T05:31:19.000Z,86.16
2023-01-03T05:32:19.000Z,86.23
2023-01-03T05:33:19.000Z,86.19
2023-01-03T05:34:19.000Z,86.14
2023-01-03T05:35:19.000Z,86.24
2023-01-03T05:36:19.000Z,86.29
2023-01-03T05:37:19.000Z,86.30
2023-01-03T05:38:20.000Z,86.40
2023-01-03T05:39:19.000Z,86.40
2023-01-03T05:40:20.000Z,86.08
2023-01-03T05:41:34.000Z,86.12
2023-01-03T05:42:19.000Z,86.12
2023-01-03T05:43:20.000Z,86.15
2023-01-03T05:44:20.000Z,86.14
2023-01-03T05:45:24.000Z,86.01
2023-01-03T05:46:19.000Z,85.94
2023-01-03T05:47:20.000Z,85.75
2023-01-03T05:48:20.000Z,85.66
2023-01-03T05:49:19.000Z,85.52
2023-01-03T05:50:19.000Z,85.45
2023-01-03T05:51:20.000Z,85.39
2023-01-03T05:52:20.000Z,85.43
2023-01-03T05:53:19.000Z,85.55
2023-01-03T05:54:20.000Z,85.77
2023-01-03T05:55:20.000Z,85.87
2023-01-03T05:56:19.000Z,85.98
2023-01-03T05:57:19.000Z,85.95
2023-01-03T05:58:20.000Z,85.91
2023-01-03T05:59:20.000Z,85.97
2023-01-03T06:00:20.000Z,85.79
2023-01-03T06:01:20.000Z,85.75
2023-01-03T06:02:19.000Z,85.81
2023-01-03T06:03:19.000Z,85.70
2023-01-03T06:04:20.000Z,85.76
2023-01-03T06:05:20.000Z,85.57
2023-01-03T06:06:20.000Z,85.51
2023-01-03T06:07:19.000Z,85.76
2023-01-03T06:08:19.000Z,85.81
2023-01-03T06:09:19.000Z,86.22
2023-01-03T06:10:19.000Z,85.94
2023-01-03T06:11:19.000Z,85.85
2023-01-03T06:12:19.000Z,86.47
2023-01-03T06:13:19.000Z,86.19
2023-01-03T06:14:19.000Z,86.29
2023-01-03T06:15:19.000Z,86.37
2023-01-03T06:16:24.000Z,86.54
2023-01-03T06:17:24.000Z,86.48
2023-01-03T06:18:19.000Z,86.31
2023-01-03T06:19:19.000Z,86.28
2023-01-03T06:20:19.000Z,86.18
2023-01-03T06:21:19.000Z,86.26
2023-01-03T06:22:19.000Z,86.20
2023-01-03T06:23:18.000Z,86.31
2023-01-03T06:24:19.000Z,86.43
2023-01-03T06:25:19.000Z,86.23
2023-01-03T06:26:21.000Z,86.47
2023-01-03T06:27:19.000Z,86.29
2023-01-03T06:28:19.000Z,86.08
2023-01-03T06:29:19.000Z,86.05
2023-01-03T06:30:19.000Z,85.98
2023-01-03T06:31:19.000Z,86.25
2023-01-03T06:32:19.000Z,86.52
2023-01-03T06:33:18.000Z,86.77
2023-01-03T06:34:18.000Z,86.46
2023-01-03T06:35:19.000Z,86.64
2023-01-03T06:36:20.000Z,86.44
2023-01-03T06:37:19.000Z,86.45
2023-01-03T06:38:18.000Z,86.40
2023-01-03T06:39:19.000Z,86.29
2023-01-03T06:40:19.000Z,86.32
2023-01-03T06:41:19.000Z,86.38
2023-01-03T06:42:24.000Z,86.94
2023-01-03T06:43:18.000Z,87.13
2023-01-03T06:44:19.000Z,87.21
2023-01-03T06:45:24.000Z,87.52
2023-01-03T06:46:24.000Z,87.32
2023-01-03T06:47:37.000Z,87.47
2023-01-03T06:48:24.000Z,87.33
2023-01-03T06:49:24.000Z,87.23
2023-01-03T06:50:24.000Z,87.26
2023-01-03T06:51:24.000Z,87.24
2023-01-03T06:52:24.000Z,87.49
2023-01-03T06:53:21.000Z,87.26
2023-01-03T06:54:22.000Z,87.16
2023-01-03T06:55:19.000Z,87.24
2023-01-03T06:56:21.000Z,87.39
2023-01-03T06:57:19.000Z,87.46
2023-01-03T06:58:19.000Z,87.39
2023-01-03T06:59:19.000Z,87.54
2023-01-03T07:00:19.000Z,87.42
2023-01-03T07:01:20.000Z,87.63
2023-01-03T07:02:19.000Z,87.55
2023-01-03T07:03:19.000Z,87.34
2023-01-03T07:04:20.000Z,87.37
2023-01-03T07:05:19.000Z,87.58
2023-01-03T07:06:19.000Z,87.59
2023-01-03T07:07:19.000Z,88.13
2023-01-03T07:08:19.000Z,87.80
2023-01-03T07:09:19.000Z,87.71
2023-01-03T07:10:18.000Z,88.22
2023-01-03T07:11:21.000Z,87.85
2023-01-03T07:12:24.000Z,88.02
2023-01-03T07:13:24.000Z,88.10
2023-01-03T07:14:19.000Z,87.81
2023-01-03T07:15:18.000Z,87.65
2023-01-03T07:16:18.000Z,87.59
2023-01-03T07:17:19.000Z,87.29
2023-01-03T07:18:19.000Z,87.19
2023-01-03T07:19:18.000Z,87.27
2023-01-03T07:20:18.000Z,87.08
2023-01-03T07:21:20.000Z,87.03
2023-01-03T07:22:18.000Z,87.21
2023-01-03T07:23:19.000Z,87.13
2023-01-03T07:24:19.000Z,86.87
2023-01-03T07:25:18.000Z,86.85
2023-01-03T07:26:19.000Z,87.03
2023-01-03T07:27:19.000Z,86.87
2023-01-03T07:28:18.000Z,86.97
2023-01-03T07:29:19.000Z,87.00
2023-01-03T07:30:19.000Z,86.75
2023-01-03T07:31:18.000Z,86.79
2023-01-03T07:32:19.000Z,86.72
2023-01-03T07:33:18.000Z,87.03
2023-01-03T07:34:18.000Z,87.11
2023-01-03T07:35:18.000Z,87.11
2023-01-03T07:36:19.000Z,86.81
2023-01-03T07:37:18.000Z,86.68
2023-01-03T07:38:18.000Z,86.81
2023-01-03T07:39:18.000Z,87.02
2023-01-03T07:40:19.000Z,87.10
2023-01-03T07:41:19.000Z,86.89
2023-01-03T07:42:24.000Z,87.18
2023-01-03T07:43:24.000Z,87.23
2023-01-03T07:44:18.000Z,87.03
2023-01-03T07:45:18.000Z,86.91
2023-01-03T07:46:22.000Z,86.78
2023-01-03T07:47:19.000Z,87.10
2023-01-03T07:48:19.000Z,87.00
2023-01-03T07:49:18.000Z,86.73
2023-01-03T07:50:18.000Z,87.24
2023-01-03T07:51:20.000Z,87.28
2023-01-03T07:52:19.000Z,87.35
2023-01-03T07:53:19.000Z,87.20
2023-01-03T07:54:19.000Z,87.16
2023-01-03T07:55:18.000Z,86.98
2023-01-03T07:56:20.000Z,87.38
2023-01-03T07:57:18.000Z,87.11
2023-01-03T07:58:19.000Z,87.32
2023-01-03T07:59:18.000Z,87.38
2023-01-03T08:00:19.000Z,87.10
2023-01-03T08:01:21.000Z,87.00
2023-01-03T08:02:19.000Z,86.94
2023-01-03T08:03:19.000Z,87.20
2023-01-03T08:04:19.000Z,87.06
2023-01-03T08:05:20.000Z,86.86
2023-01-03T08:06:20.000Z,86.91
2023-01-03T08:07:18.000Z,87.07
2023-01-03T08:08:19.000Z,87.35
2023-01-03T08:09:24.000Z,87.19
2023-01-03T08:10:24.000Z,87.29
2023-01-03T08:11:23.000Z,86.99
2023-01-03T08:12:23.000Z,87.31
2023-01-03T08:13:19.000Z,87.04
2023-01-03T08:14:19.000Z,87.51
2023-01-03T08:15:18.000Z,87.11
2023-01-03T08:16:18.000Z,86.92
2023-01-03T08:17:18.000Z,87.27
2023-01-03T08:18:24.000Z,87.56
2023-01-03T08:19:18.000Z,87.52
2023-01-03T08:20:18.000Z,87.57
2023-01-03T08:21:18.000Z,87.55
2023-01-03T08:22:18.000Z,88.31
2023-01-03T08:23:23.000Z,87.77
2023-01-03T08:24:18.000Z,87.94
2023-01-03T08:25:19.000Z,88.10
2023-01-03T08:26:19.000Z,87.71
2023-01-03T08:27:18.000Z,87.98
2023-01-03T08:28:18.000Z,87.60
2023-01-03T08:29:18.000Z,87.55
2023-01-03T08:30:19.000Z,87.30
2023-01-03T08:31:20.000Z,88.00
2023-01-03T08:32:19.000Z,87.75
2023-01-03T08:33:19.000Z,87.75
2023-01-03T08:34:19.000Z,87.79
2023-01-03T08:35:21.000Z,88.52
2023-01-03T08:36:21.000Z,88.18
2023-01-03T08:37:19.000Z,88.20
2023-01-03T08:38:25.000Z,88.52
2023-01-03T08:39:25.000Z,88.11
2023-01-03T08:40:19.000Z,88.15
2023-01-03T08:41:23.000Z,88.11
2023-01-03T08:42:21.000Z,88.01
2023-01-03T08:43:19.000Z,88.01
2023-01-03T08:44:19.000Z,88.12
2023-01-03T08:45:19.000Z,88.02
2023-01-03T08:46:19.000Z,88.29
2023-01-03T08:47:19.000Z,88.42
2023-01-03T08:48:21.000Z,88.76
2023-01-03T08:49:19.000Z,88.66
2023-01-03T08:50:19.000Z,88.81
2023-01-03T08:51:19.000Z,88.18
2023-01-03T08:52:19.000Z,88.03
2023-01-03T08:53:21.000Z,88.58
2023-01-03T08:54:19.000Z,88.23
2023-01-03T08:55:19.000Z,88.22
2023-01-03T08:56:19.000Z,88.55
2023-01-03T08:57:19.000Z,88.30
2023-01-03T08:58:19.000Z,88.46
2023-01-03T08:59:19.000Z,88.40
2023-01-03T09:00:19.000Z,88.15
2023-01-03T09:01:19.000Z,88.14
2023-01-03T09:02:19.000Z,88.27
2023-01-03T09:03:19.000Z,88.55
2023-01-03T09:04:19.000Z,88.49
2023-01-03T09:05:19.000Z,88.76
2023-01-03T09:06:19.000Z,88.33
2023-01-03T09:07:19.000Z,88.17
2023-01-03T09:08:19.000Z,88.14
2023-01-03T09:09:19.000Z,88.05
2023-01-03T09:10:20.000Z,88.18
2023-01-03T09:11:19.000Z,88.17
2023-01-03T09:12:19.000Z,88.42
2023-01-03T09:13:19.000Z,88.26
2023-01-03T09:14:19.000Z,88.34
2023-01-03T09:15:19.000Z,88.41
2023-01-03T09:16:19.000Z,88.20
2023-01-03T09:17:19.000Z,88.13
2023-01-03T09:18:19.000Z,88.09
2023-01-03T09:19:19.000Z,88.50
2023-01-03T09:20:19.000Z,88.45
2023-01-03T09:21:19.000Z,88.25
2023-01-03T09:22:19.000Z,88.06
2023-01-03T09:23:19.000Z,87.97
2023-01-03T09:24:19.000Z,88.16
2023-01-03T09:25:19.000Z,88.06
2023-01-03T09:26:19.000Z,88.09
2023-01-03T09:27:19.000Z,87.96
2023-01-03T09:28:19.000Z,88.13
2023-01-03T09:29:19.000Z,88.18
2023-01-03T09:30:19.000Z,88.06
2023-01-03T09:31:19.000Z,88.02
2023-01-03T09:32:19.000Z,88.29
2023-01-03T09:33:19.000Z,88.15
2023-01-03T09:34:19.000Z,88.39
2023-01-03T09:35:19.000Z,88.33
2023-01-03T09:36:19.000Z,88.40
2023-01-03T09:37:19.000Z,88.22
2023-01-03T09:38:20.000Z,88.09
2023-01-03T09:39:19.000Z,88.26
2023-01-03T09:40:19.000Z,88.10
2023-01-03T09:41:25.000Z,88.29
2023-01-03T09:42:27.000Z,88.30
2023-01-03T09:43:22.000Z,88.22
2023-01-03T09:44:19.000Z,88.06
2023-01-03T09:45:25.000Z,88.34
2023-01-03T09:46:24.000Z,88.21
2023-01-03T09:47:24.000Z,88.55
2023-01-03T09:48:28.000Z,88.67
2023-01-03T09:49:19.000Z,88.46
2023-01-03T09:50:26.000Z,88.96
2023-01-03T09:51:30.000Z,88.71
2023-01-03T09:52:26.000Z,88.67
2023-01-03T09:53:32.000Z,88.77
2023-01-03T09:54:30.000Z,88.76
2023-01-03T09:55:32.000Z,88.77
2023-01-03T09:56:24.000Z,88.99
2023-01-03T09:57:30.000Z,88.89
2023-01-03T09:58:24.000Z,88.82
2023-01-03T09:59:24.000Z,88.91
2023-01-03T10:00:29.000Z,89.01
2023-01-03T10:01:50.000Z,88.83
2023-01-03T10:02:34.000Z,88.72
2023-01-03T10:03:44.000Z,88.82
2023-01-03T10:04:42.000Z,88.92
2023-01-03T10:05:30.000Z,88.86
2023-01-03T10:06:40.000Z,88.94
2023-01-03T10:07:42.000Z,88.82
2023-01-03T10:08:33.000Z,89.38
2023-01-03T10:09:33.000Z,89.02
2023-01-03T10:10:29.000Z,88.80
2023-01-03T10:11:31.000Z,88.72
2023-01-03T10:12:29.000Z,89.09
2023-01-03T10:13:39.000Z,88.96
2023-01-03T10:14:36.000Z,88.99
2023-01-03T10:15:29.000Z,89.16
2023-01-03T10:16:35.000Z,89.32
2023-01-03T10:17:28.000Z,89.23
2023-01-03T10:18:39.000Z,89.48
2023-01-03T10:19:39.000Z,89.42
2023-01-03T10:20:29.000Z,89.42
2023-01-03T10:21:35.000Z,89.30
2023-01-03T10:22:30.000Z,89.07
2023-01-03T10:23:19.000Z,88.87
2023-01-03T10:24:28.000Z,88.96
2023-01-03T10:25:22.000Z,88.74
2023-01-03T10:26:22.000Z,88.83
2023-01-03T10:27:24.000Z,88.55
2023-01-03T10:28:25.000Z,88.76
2023-01-03T10:29:19.000Z,88.56
2023-01-03T10:30:29.000Z,88.35
2023-01-03T10:31:34.000Z,88.31
2023-01-03T10:32:32.000Z,88.67
2023-01-03T10:33:30.000Z,88.36
2023-01-03T10:34:19.000Z,88.28
2023-01-03T10:35:26.000Z,88.51
2023-01-03T10:36:20.000Z,88.81
2023-01-03T10:37:19.000Z,88.66
2023-01-03T10:38:21.000Z,88.42
2023-01-03T10:39:28.000Z,88.48
2023-01-03T10:40:20.000Z,88.46
2023-01-03T10:41:34.000Z,88.40
2023-01-03T10:42:19.000Z,88.61
2023-01-03T10:43:26.000Z,88.55
2023-01-03T10:44:28.000Z,88.20
2023-01-03T10:45:19.000Z,88.10
2023-01-03T10:46:21.000Z,88.02
2023-01-03T10:47:19.000Z,87.85
2023-01-03T10:48:19.000Z,87.74
2023-01-03T10:49:23.000Z,87.79
2023-01-03T10:50:22.000Z,87.67
2023-01-03T10:51:29.000Z,87.60
2023-01-03T10:52:21.000Z,87.88
2023-01-03T10:53:20.000Z,87.70
2023-01-03T10:54:30.000Z,87.57
2023-01-03T10:55:21.000Z,87.38
2023-01-03T10:56:20.000Z,87.36
2023-01-03T10:57:29.000Z,87.29
2023-01-03T10:58:22.000Z,87.27
2023-01-03T10:59:25.000Z,87.28
2023-01-03T11:00:29.000Z,87.26
2023-01-03T11:01:23.000Z,87.43
2023-01-03T11:02:20.000Z,87.21
2023-01-03T11:03:23.000Z,87.22
2023-01-03T11:04:19.000Z,87.38
2023-01-03T11:05:24.000Z,87.19
2023-01-03T11:06:19.000Z,87.02
2023-01-03T11:07:19.000Z,86.90
2023-01-03T11:08:38.000Z,86.73
2023-01-03T11:09:19.000Z,86.38
2023-01-03T11:10:19.000Z,85.98
2023-01-03T11:11:28.000Z,86.00
2023-01-03T11:12:31.000Z,85.89
2023-01-03T11:13:42.000Z,85.99
2023-01-03T11:14:25.000Z,85.85
2023-01-03T11:15:29.000Z,85.61
2023-01-03T11:16:19.000Z,85.63
2023-01-03T11:17:21.000Z,85.65
2023-01-03T11:18:23.000Z,85.63
2023-01-03T11:19:19.000Z,85.68
2023-01-03T11:20:20.000Z,85.83
2023-01-03T11:21:30.000Z,85.87
2023-01-03T11:22:29.000Z,85.49
2023-01-03T11:23:38.000Z,85.88
2023-01-03T11:24:42.000Z,85.97
2023-01-03T11:25:42.000Z,86.02
2023-01-03T11:26:44.000Z,85.54
2023-01-03T11:27:38.000Z,85.40
2023-01-03T11:28:44.000Z,85.47
2023-01-03T11:29:42.000Z,85.86
2023-01-03T11:30:32.000Z,85.73
2023-01-03T11:31:39.000Z,85.60
2023-01-03T11:32:37.000Z,85.47
2023-01-03T11:33:35.000Z,85.50
2023-01-03T11:34:39.000Z,85.42
2023-01-03T11:35:44.000Z,85.26
2023-01-03T11:36:30.000Z,85.21
2023-01-03T11:37:34.000Z,85.11
2023-01-03T11:38:35.000Z,85.14
2023-01-03T11:39:39.000Z,84.64
2023-01-03T11:40:32.000Z,84.28
2023-01-03T11:41:36.000Z,84.52
2023-01-03T11:42:30.000Z,83.99
2023-01-03T11:43:29.000Z,84.06
2023-01-03T11:44:40.000Z,84.33
2023-01-03T11:45:39.000Z,84.23
2023-01-03T11:46:37.000Z,84.21
2023-01-03T11:47:31.000Z,84.14
2023-01-03T11:48:28.000Z,83.69
2023-01-03T11:49:29.000Z,84.05
2023-01-03T11:50:26.000Z,83.44
2023-01-03T11:51:32.000Z,83.30
2023-01-03T11:52:29.000Z,83.35
2023-01-03T11:53:32.000Z,83.17
2023-01-03T11:54:42.000Z,83.26
2023-01-03T11:55:29.000Z,83.29
2023-01-03T11:56:29.000Z,82.85
2023-01-03T11:57:29.000Z,82.98
2023-01-03T11:58:29.000Z,82.99
2023-01-03T11:59:38.000Z,82.50
2023-01-03T12:00:28.000Z,82.55
2023-01-03T12:01:39.000Z,81.63
2023-01-03T12:02:43.000Z,81.87
2023-01-03T12:03:29.000Z,81.12
2023-01-03T12:04:28.000Z,80.16
2023-01-03T12:05:29.000Z,80.10
2023-01-03T12:06:32.000Z,80.25
2023-01-03T12:07:28.000Z,79.60
2023-01-03T12:08:36.000Z,79.94
2023-01-03T12:09:29.000Z,80.00
2023-01-03T12:10:31.000Z,79.99
2023-01-03T12:11:28.000Z,80.00
2023-01-03T12:12:28.000Z,79.34
2023-01-03T12:13:39.000Z,79.33
2023-01-03T12:14:31.000Z,79.19
2023-01-03T12:15:29.000Z,79.35
2023-01-03T12:16:29.000Z,78.91
2023-01-03T12:17:30.000Z,79.28
2023-01-03T12:18:41.000Z,79.31
2023-01-03T12:19:29.000Z,79.00
2023-01-03T12:20:26.000Z,79.40
2023-01-03T12:21:34.000Z,79.13
2023-01-03T12:22:35.000Z,79.48
2023-01-03T12:23:28.000Z,79.17
2023-01-03T12:24:44.000Z,78.94
2023-01-03T12:25:24.000Z,79.36
2023-01-03T12:26:22.000Z,79.40
2023-01-03T12:27:26.000Z,79.57
2023-01-03T12:28:30.000Z,79.43
2023-01-03T12:29:27.000Z,79.16
2023-01-03T12:30:27.000Z,78.80
2023-01-03T12:31:25.000Z,78.94
2023-01-03T12:32:26.000Z,78.82
2023-01-03T12:33:27.000Z,79.29
2023-01-03T12:34:29.000Z,79.12
2023-01-03T12:35:28.000Z,79.06
2023-01-03T12:36:28.000Z,78.89
2023-01-03T12:37:22.000Z,78.92
2023-01-03T12:38:27.000Z,78.83
2023-01-03T12:39:29.000Z,79.13
2023-01-03T12:40:40.000Z,79.13
2023-01-03T12:41:28.000Z,79.01
2023-01-03T12:42:34.000Z,79.17
2023-01-03T12:43:29.000Z,79.21
2023-01-03T12:44:27.000Z,79.47
2023-01-03T12:45:39.000Z,79.21
2023-01-03T12:46:27.000Z,79.64
2023-01-03T12:47:43.000Z,79.63
2023-01-03T12:48:39.000Z,79.89
2023-01-03T12:49:29.000Z,79.93
2023-01-03T12:50:29.000Z,79.54
2023-01-03T12:51:22.000Z,79.72
2023-01-03T12:52:22.000Z,79.89